createdAt,value
2023-05-10T00:00:24.860Z,5.10
2023-05-10T00:02:51.994Z,5.57
2023-05-10T00:05:19.068Z,5.72
2023-05-10T00:07:46.295Z,5.78
2023-05-10T00:10:13.251Z,6.30
2023-05-10T00:12:40.437Z,5.35
2023-05-10T00:15:08.169Z,5.90
2023-05-10T00:17:35.077Z,5.97
2023-05-10T00:20:02.038Z,6.12
2023-05-10T00:22:28.976Z,5.60
2023-05-10T00:24:55.819Z,5.80
2023-05-10T00:27:22.660Z,5.40
2023-05-10T00:29:49.515Z,5.75
2023-05-10T00:32:16.751Z,6.18
2023-05-10T00:34:43.797Z,6.12
2023-05-10T00:37:10.664Z,5.80
2023-05-10T00:39:37.487Z,3.65
2023-05-10T00:42:05.626Z,3.62
2023-05-10T00:44:32.446Z,3.55
2023-05-10T00:47:00.030Z,3.75
2023-05-10T00:49:27.156Z,3.50
2023-05-10T00:51:54.349Z,3.28
2023-05-10T00:54:21.734Z,3.60
2023-05-10T00:56:50.290Z,3.40
2023-05-10T00:59:18.908Z,3.35
2023-05-10T01:01:48.756Z,3.83
2023-05-10T01:04:16.085Z,3.95
2023-05-10T01:06:43.454Z,4.37
2023-05-10T01:09:10.988Z,4.68
2023-05-10T01:11:39.815Z,4.20
2023-05-10T01:14:07.444Z,3.80
2023-05-10T01:16:39.723Z,4.75
2023-05-10T01:19:08.450Z,5.85
2023-05-10T01:21:58.243Z,6.32
2023-05-10T01:24:30.589Z,5.78
2023-05-10T01:27:28.730Z,5.40
2023-05-10T01:30:15.636Z,4.12
2023-05-10T01:33:01.009Z,4.10
2023-05-10T01:35:57.651Z,4.03
2023-05-10T01:38:42.103Z,4.70
2023-05-10T01:41:14.774Z,4.80
2023-05-10T01:43:51.270Z,5.62
2023-05-10T01:46:31.764Z,6.03
2023-05-10T01:49:00.477Z,6.87
2023-05-10T01:51:32.684Z,6.18
2023-05-10T01:54:02.844Z,6.22
2023-05-10T01:56:32.111Z,6.05
2023-05-10T01:59:00.061Z,5.82
2023-05-10T02:01:28.143Z,6.15
2023-05-10T02:03:56.475Z,6.47
2023-05-10T02:06:23.623Z,6.40
2023-05-10T02:08:51.550Z,6.40
2023-05-10T02:11:19.180Z,6.72
2023-05-10T02:13:48.404Z,5.85
2023-05-10T02:16:16.150Z,6.35
2023-05-10T02:18:43.386Z,7.05
2023-05-10T02:21:11.741Z,6.37
2023-05-10T02:23:38.783Z,5.82
2023-05-10T02:26:06.975Z,5.97
2023-05-10T02:28:34.426Z,5.55
2023-05-10T02:31:01.733Z,5.68
2023-05-10T02:33:28.837Z,5.50
2023-05-10T02:35:56.117Z,6.20
2023-05-10T02:38:23.393Z,5.60
2023-05-10T02:40:50.320Z,6.32
2023-05-10T02:43:19.149Z,5.12
2023-05-10T02:45:48.556Z,5.45
2023-05-10T02:48:15.714Z,4.93
2023-05-10T02:50:45.599Z,4.93
2023-05-10T02:53:17.583Z,5.10
2023-05-10T02:55:47.669Z,5.15
2023-05-10T02:58:14.569Z,4.70
2023-05-10T03:00:41.416Z,4.43
2023-05-10T03:03:08.841Z,7.30
2023-05-10T03:05:35.685Z,4.82
2023-05-10T03:08:05.271Z,5.10
2023-05-10T03:10:33.379Z,5.47
2023-05-10T03:13:18.560Z,6.28
2023-05-10T03:16:10.314Z,5.70
2023-05-10T03:18:45.661Z,9.27
2023-05-10T03:21:13.648Z,6.90
2023-05-10T03:23:43.479Z,6.07
2023-05-10T03:26:10.429Z,6.60
2023-05-10T03:28:38.048Z,6.37
2023-05-10T03:31:06.846Z,6.03
2023-05-10T03:33:33.746Z,6.62
2023-05-10T03:36:00.596Z,5.85
2023-05-10T03:38:29.699Z,6.03
2023-05-10T03:40:57.320Z,4.97
2023-05-10T03:43:24.153Z,5.40
2023-05-10T03:48:17.706Z,5.60
2023-05-10T03:50:44.611Z,5.25
2023-05-10T03:53:11.419Z,5.97
2023-05-10T03:58:04.939Z,5.80
2023-05-10T04:00:32.129Z,5.10
2023-05-10T04:02:59.029Z,5.45
2023-05-10T04:05:25.947Z,6.10
2023-05-10T04:07:52.816Z,5.03
2023-05-10T04:10:19.815Z,5.55
2023-05-10T04:12:46.793Z,5.95
2023-05-10T04:15:13.678Z,5.68
2023-05-10T04:17:40.759Z,6.03
2023-05-10T04:20:08.456Z,5.85
2023-05-10T04:22:35.318Z,5.15
2023-05-10T04:25:02.131Z,5.90
2023-05-10T04:29:55.621Z,6.37
2023-05-10T04:34:49.156Z,7.12
2023-05-10T04:37:16.153Z,5.75
2023-05-10T04:39:43.035Z,6.30
2023-05-10T04:42:10.181Z,5.93
2023-05-10T04:44:37.484Z,6.28
2023-05-10T04:47:04.471Z,6.93
2023-05-10T04:49:31.393Z,6.93
2023-05-10T04:51:58.217Z,8.07
2023-05-10T04:56:51.836Z,6.85
2023-05-10T04:59:18.671Z,7.50
2023-05-10T05:04:12.550Z,7.93
2023-05-10T05:06:39.456Z,8.77
2023-05-10T05:09:06.310Z,7.95
2023-05-10T05:11:33.216Z,8.63
2023-05-10T05:14:00.703Z,6.72
2023-05-10T05:16:27.738Z,7.20
2023-05-10T05:18:54.683Z,7.28
2023-05-10T05:21:22.465Z,6.65
2023-05-10T05:23:49.353Z,6.80
2023-05-10T05:26:16.292Z,5.85
2023-05-10T05:28:43.273Z,6.93
2023-05-10T05:31:10.290Z,6.75
2023-05-10T05:33:37.638Z,5.65
2023-05-10T05:36:07.625Z,6.70
2023-05-10T05:38:34.479Z,6.50
2023-05-10T05:41:01.577Z,6.87
2023-05-10T05:43:28.462Z,6.85
2023-05-10T05:45:55.567Z,6.12
2023-05-10T05:48:22.441Z,4.90
2023-05-10T05:50:49.311Z,6.03
2023-05-10T05:53:16.901Z,6.40
2023-05-10T05:56:01.821Z,5.35
2023-05-10T05:58:29.116Z,6.57
2023-05-10T06:00:55.973Z,6.07
2023-05-10T06:03:22.852Z,6.50
2023-05-10T06:05:49.942Z,6.40
2023-05-10T06:08:16.856Z,6.60
2023-05-10T06:10:43.771Z,6.40
2023-05-10T06:13:11.071Z,5.95
2023-05-10T06:15:38.096Z,6.15
2023-05-10T06:18:05.415Z,6.07
2023-05-10T06:20:32.746Z,6.03
2023-05-10T06:22:59.854Z,6.45
2023-05-10T06:25:26.853Z,6.62
2023-05-10T06:27:58.428Z,6.47
2023-05-10T06:30:29.824Z,6.90
2023-05-10T06:32:57.486Z,6.43
2023-05-10T06:35:24.530Z,5.50
2023-05-10T06:37:52.104Z,6.78
2023-05-10T06:40:19.405Z,6.22
2023-05-10T06:42:47.476Z,6.53
2023-05-10T06:45:15.877Z,6.57
2023-05-10T06:47:43.155Z,6.10
2023-05-10T06:50:10.836Z,5.70
2023-05-10T06:52:37.822Z,6.25
2023-05-10T06:55:05.901Z,5.75
2023-05-10T06:57:33.119Z,6.43
2023-05-10T07:00:00.422Z,7.00
2023-05-10T07:02:27.751Z,6.20
2023-05-10T07:04:55.351Z,7.22
2023-05-10T07:07:22.385Z,6.93
2023-05-10T07:09:52.307Z,5.47
2023-05-10T07:12:19.234Z,6.72
2023-05-10T07:14:46.515Z,6.85
2023-05-10T07:17:13.431Z,4.68
2023-05-10T07:19:40.341Z,3.50
2023-05-10T07:22:10.003Z,7.37
2023-05-10T07:24:37.505Z,6.50
2023-05-10T07:27:05.427Z,6.32
2023-05-10T07:29:32.409Z,6.47
2023-05-10T07:31:59.369Z,6.80
2023-05-10T07:34:26.625Z,6.45
2023-05-10T07:36:53.831Z,7.10
2023-05-10T07:39:27.502Z,6.95
2023-05-10T07:41:55.960Z,7.47
2023-05-10T07:44:22.972Z,5.65
2023-05-10T07:46:49.977Z,5.80
2023-05-10T07:49:17.328Z,4.15
2023-05-10T07:51:44.446Z,4.68
2023-05-10T07:54:11.379Z,4.55
2023-05-10T07:56:38.257Z,5.60
2023-05-10T07:59:07.362Z,6.95
2023-05-10T08:01:35.455Z,6.40
2023-05-10T08:04:03.123Z,6.22
2023-05-10T08:06:31.430Z,7.20
2023-05-10T08:08:59.989Z,7.80
2023-05-10T08:11:28.811Z,7.70
2023-05-10T08:13:55.927Z,6.97
2023-05-10T08:16:23.259Z,6.70
2023-05-10T08:18:52.000Z,6.10
2023-05-10T08:21:19.069Z,5.78
2023-05-10T08:23:46.227Z,5.70
2023-05-10T08:26:13.202Z,5.50
2023-05-10T08:28:40.077Z,5.32
2023-05-10T08:31:07.129Z,4.37
2023-05-10T08:33:34.270Z,5.43
2023-05-10T08:36:01.140Z,4.12
2023-05-10T08:38:28.268Z,4.78
2023-05-10T08:40:58.107Z,5.32
2023-05-10T08:43:28.588Z,4.95
2023-05-10T08:45:57.101Z,5.40
2023-05-10T08:48:25.954Z,5.10
2023-05-10T08:50:58.683Z,4.70
2023-05-10T08:53:27.799Z,5.00
2023-05-10T08:55:54.806Z,4.60
2023-05-10T08:58:21.699Z,4.87
2023-05-10T09:00:52.623Z,4.57
2023-05-10T09:03:19.793Z,4.18
2023-05-10T09:05:47.078Z,3.85
2023-05-10T09:08:16.874Z,3.92
2023-05-10T09:10:46.155Z,3.80
2023-05-10T09:13:13.792Z,4.18
2023-05-10T09:15:40.738Z,4.10
2023-05-10T09:18:07.665Z,3.50
2023-05-10T09:20:34.552Z,4.07
2023-05-10T09:23:01.416Z,3.40
2023-05-10T09:25:28.359Z,2.72
2023-05-10T09:27:56.281Z,2.62
2023-05-10T09:30:26.860Z,2.12
2023-05-10T09:32:54.463Z,2.05
2023-05-10T09:35:25.440Z,2.92
2023-05-10T09:37:55.394Z,2.25
2023-05-10T09:40:26.543Z,2.40
2023-05-10T09:43:01.780Z,2.15
2023-05-10T09:45:30.693Z,5.15
2023-05-10T09:47:58.013Z,1.95
2023-05-10T09:50:25.160Z,2.62
2023-05-10T09:52:59.504Z,3.92
2023-05-10T09:55:42.513Z,2.83
2023-05-10T09:58:17.723Z,2.78
2023-05-10T10:00:46.363Z,2.50
2023-05-10T10:03:17.885Z,2.53
2023-05-10T10:05:45.708Z,2.90
2023-05-10T10:08:13.465Z,2.47
2023-05-10T10:10:47.648Z,2.25
2023-05-10T10:13:15.905Z,2.70
2023-05-10T10:15:44.133Z,3.05
2023-05-10T10:18:32.000Z,1.87
2023-05-10T10:23:26.433Z,2.80
2023-05-10T10:25:55.337Z,2.45
2023-05-10T10:28:54.833Z,2.25
2023-05-10T10:31:40.342Z,1.60
2023-05-10T10:34:15.146Z,2.60
2023-05-10T10:36:46.916Z,2.17
2023-05-10T10:39:31.121Z,2.50
2023-05-10T10:41:58.905Z,2.78
2023-05-10T10:44:33.226Z,2.08
2023-05-10T10:47:09.631Z,3.00
2023-05-10T10:55:50.125Z,2.28
2023-05-10T10:58:33.306Z,2.42
2023-05-10T11:01:20.831Z,2.42
2023-05-10T11:03:59.753Z,2.67
2023-05-10T11:06:33.699Z,2.60
2023-05-10T11:09:06.522Z,2.50
2023-05-10T11:11:33.443Z,2.08
2023-05-10T11:14:05.166Z,2.72
2023-05-10T11:16:43.594Z,2.45
2023-05-10T11:19:48.844Z,2.42
2023-05-10T11:22:15.989Z,2.45
2023-05-10T11:24:57.976Z,2.30
2023-05-10T11:27:24.920Z,2.20
2023-05-10T11:29:54.929Z,2.65
2023-05-10T11:32:22.085Z,2.20
2023-05-10T11:34:49.528Z,2.47
2023-05-10T11:37:16.388Z,2.30
2023-05-10T11:39:50.528Z,1.98
2023-05-10T11:42:17.411Z,1.98
2023-05-10T11:44:46.967Z,2.25
2023-05-10T11:47:13.877Z,1.15
2023-05-10T11:49:45.039Z,2.40
2023-05-10T11:52:14.940Z,2.00
2023-05-10T11:54:55.512Z,2.40
2023-05-10T11:57:28.058Z,2.35
2023-05-10T11:59:56.230Z,2.42
2023-05-10T12:02:23.176Z,2.00
2023-05-10T12:04:51.107Z,1.98
2023-05-10T12:07:18.381Z,2.03
2023-05-10T12:09:46.331Z,2.00
2023-05-10T12:12:19.426Z,2.40
2023-05-10T12:14:50.496Z,2.20
2023-05-10T12:17:17.611Z,2.33
2023-05-10T12:19:44.974Z,1.87
2023-05-10T12:22:11.865Z,2.10
2023-05-10T12:24:41.692Z,2.15
2023-05-10T12:27:13.429Z,1.95
2023-05-10T12:29:44.923Z,1.83
2023-05-10T12:32:12.148Z,2.25
2023-05-10T12:34:39.711Z,1.87
2023-05-10T12:37:06.676Z,2.03
2023-05-10T12:39:44.884Z,2.17
2023-05-10T12:42:11.983Z,2.10
2023-05-10T12:44:38.908Z,1.80
2023-05-10T12:47:06.192Z,1.95
2023-05-10T12:49:33.329Z,2.10
2023-05-10T12:52:00.233Z,2.00
2023-05-10T12:54:27.185Z,2.50
2023-05-10T12:56:54.070Z,1.83
2023-05-10T12:59:20.941Z,1.87
2023-05-10T13:01:47.884Z,1.90
2023-05-10T13:04:14.831Z,2.30
2023-05-10T13:06:42.028Z,2.42
2023-05-10T13:09:08.952Z,2.10
2023-05-10T13:11:35.880Z,2.10
2023-05-10T13:14:04.373Z,1.80
2023-05-10T13:16:32.460Z,1.70
2023-05-10T13:18:59.723Z,1.70
2023-05-10T13:21:26.926Z,2.00
2023-05-10T13:23:54.695Z,1.98
2023-05-10T13:26:21.543Z,1.95
2023-05-10T13:28:49.982Z,1.80
2023-05-10T13:31:17.044Z,1.98
2023-05-10T13:33:44.053Z,2.00
2023-05-10T13:36:10.992Z,1.67
2023-05-10T13:38:38.547Z,1.80
2023-05-10T13:41:05.723Z,1.80
2023-05-10T13:43:32.757Z,1.80
2023-05-10T13:45:59.697Z,2.00
2023-05-10T13:48:26.597Z,1.92
2023-05-10T13:50:53.512Z,1.77
2023-05-10T13:53:20.512Z,2.30
2023-05-10T13:55:47.416Z,2.08
2023-05-10T13:58:14.368Z,2.17
2023-05-10T14:00:41.423Z,1.70
2023-05-10T14:03:10.310Z,1.80
2023-05-10T14:05:37.435Z,1.77
2023-05-10T14:08:05.394Z,1.95
2023-05-10T14:10:32.291Z,1.95
2023-05-10T14:12:59.172Z,2.08
2023-05-10T14:15:28.083Z,1.77
2023-05-10T14:17:55.143Z,1.80
2023-05-10T14:20:22.058Z,2.08
2023-05-10T14:22:49.039Z,2.22
2023-05-10T14:25:16.396Z,1.58
2023-05-10T14:27:43.456Z,1.60
2023-05-10T14:30:11.961Z,1.98
2023-05-10T14:32:39.049Z,1.80
2023-05-10T14:35:07.324Z,1.37
2023-05-10T14:37:34.492Z,1.62
2023-05-10T14:40:01.568Z,1.37
2023-05-10T14:42:29.564Z,1.23
2023-05-10T14:44:56.463Z,2.08
2023-05-10T14:47:23.423Z,1.77
2023-05-10T14:49:50.392Z,2.37
2023-05-10T14:52:17.732Z,2.33
2023-05-10T14:54:44.658Z,1.50
2023-05-10T14:57:11.507Z,2.08
2023-05-10T14:59:38.372Z,1.60
2023-05-10T15:02:05.628Z,2.20
2023-05-10T15:04:33.356Z,2.00
2023-05-10T15:07:01.045Z,2.08
2023-05-10T15:09:28.876Z,1.50
2023-05-10T15:11:56.348Z,2.00
2023-05-10T15:14:23.931Z,1.90
2023-05-10T15:16:50.831Z,1.90
2023-05-10T15:19:17.739Z,1.70
2023-05-10T15:21:45.690Z,1.90
2023-05-10T15:24:12.619Z,1.75
2023-05-10T15:26:39.569Z,1.90
2023-05-10T15:29:06.403Z,2.62
2023-05-10T15:31:36.190Z,1.42
2023-05-10T15:34:03.195Z,1.73
2023-05-10T15:36:30.059Z,1.70
2023-05-10T15:38:57.015Z,1.80
2023-05-10T15:41:24.807Z,2.05
2023-05-10T15:43:51.771Z,1.67
2023-05-10T15:46:18.696Z,1.77
2023-05-10T15:48:45.600Z,1.95
2023-05-10T15:51:12.542Z,1.83
2023-05-10T15:53:46.668Z,1.87
2023-05-10T15:56:19.920Z,2.37
2023-05-10T15:58:46.977Z,2.00
2023-05-10T16:01:13.962Z,1.77
2023-05-10T16:03:40.897Z,2.28
2023-05-10T16:06:08.160Z,2.30
2023-05-10T16:08:35.508Z,2.00
2023-05-10T16:11:02.530Z,1.90
2023-05-10T16:13:29.630Z,2.20
2023-05-10T16:15:57.957Z,4.30
2023-05-10T16:18:25.071Z,7.18
2023-05-10T16:20:52.375Z,3.70
2023-05-10T16:23:19.592Z,2.50
2023-05-10T16:25:46.650Z,2.53
2023-05-10T16:28:13.504Z,3.20
2023-05-10T16:30:40.726Z,2.00
2023-05-10T16:33:07.597Z,2.55
2023-05-10T16:35:34.437Z,2.50
2023-05-10T16:38:01.285Z,2.28
2023-05-10T16:40:28.177Z,2.25
2023-05-10T16:42:55.023Z,2.37
2023-05-10T16:45:21.945Z,2.83
2023-05-10T16:47:49.003Z,2.40
2023-05-10T16:50:15.904Z,2.80
2023-05-10T16:52:42.792Z,2.85
2023-05-10T16:55:09.902Z,2.45
2023-05-10T16:57:36.924Z,2.50
2023-05-10T17:00:05.250Z,2.65
2023-05-10T17:02:32.336Z,2.83
2023-05-10T17:04:59.258Z,2.65
2023-05-10T17:07:26.574Z,2.15
2023-05-10T17:09:53.424Z,2.80
2023-05-10T17:12:20.358Z,3.25
2023-05-10T17:14:47.493Z,13.98
2023-05-10T17:17:14.436Z,11.27
2023-05-10T17:19:45.001Z,4.18
2023-05-10T17:22:13.469Z,3.47
2023-05-10T17:24:40.389Z,2.62
2023-05-10T17:27:07.263Z,2.60
2023-05-10T17:29:34.167Z,2.90
2023-05-10T17:32:01.188Z,3.00
2023-05-10T17:34:28.245Z,2.80
2023-05-10T17:36:55.695Z,5.93
2023-05-10T17:39:22.671Z,28.62
2023-05-10T17:41:49.513Z,11.30
2023-05-10T17:44:16.426Z,4.20
2023-05-10T17:46:43.677Z,3.75
2023-05-10T17:49:10.646Z,6.15
2023-05-10T17:51:37.560Z,3.90
2023-05-10T17:54:04.505Z,2.80
2023-05-10T17:56:31.352Z,2.33
2023-05-10T17:58:58.236Z,5.43
2023-05-10T18:01:25.157Z,5.18
2023-05-10T18:03:53.001Z,2.70
2023-05-10T18:06:20.092Z,2.60
2023-05-10T18:08:46.961Z,2.80
2023-05-10T18:11:13.948Z,2.08
2023-05-10T18:13:41.078Z,2.15
2023-05-10T18:16:09.003Z,2.20
2023-05-10T18:18:43.096Z,2.17
2023-05-10T18:21:10.074Z,2.10
2023-05-10T18:23:37.352Z,2.45
2023-05-10T18:26:04.427Z,2.28
2023-05-10T18:28:31.300Z,2.33
2023-05-10T18:30:58.360Z,2.60
2023-05-10T18:33:25.323Z,2.58
2023-05-10T18:35:52.234Z,2.75
2023-05-10T18:38:19.671Z,2.35
2023-05-10T18:40:46.582Z,2.50
2023-05-10T18:43:13.436Z,2.80
2023-05-10T18:45:40.320Z,2.45
2023-05-10T18:48:08.034Z,2.60
2023-05-10T18:50:35.014Z,2.60
2023-05-10T18:53:02.287Z,3.00
2023-05-10T18:55:29.991Z,2.90
2023-05-10T18:57:56.905Z,2.62
2023-05-10T19:00:24.102Z,4.03
2023-05-10T19:02:51.162Z,4.53
2023-05-10T19:05:18.542Z,16.60
2023-05-10T19:07:45.767Z,10.23
2023-05-10T19:10:13.729Z,9.32
2023-05-10T19:12:43.207Z,6.57
2023-05-10T19:15:10.694Z,4.50
2023-05-10T19:17:40.840Z,4.70
2023-05-10T19:20:09.532Z,3.92
2023-05-10T19:22:54.316Z,4.00
2023-05-10T19:25:29.707Z,3.80
2023-05-10T19:27:59.814Z,3.22
2023-05-10T19:30:26.896Z,2.95
2023-05-10T19:32:55.521Z,3.47
2023-05-10T19:35:23.610Z,3.78
2023-05-10T19:37:51.064Z,3.15
2023-05-10T19:40:18.745Z,3.42
2023-05-10T19:42:45.697Z,2.90
2023-05-10T19:45:12.648Z,3.33
2023-05-10T19:47:39.577Z,3.37
2023-05-10T19:50:07.627Z,2.97
2023-05-10T19:52:34.634Z,3.40
2023-05-10T19:55:01.571Z,4.32
2023-05-10T19:57:28.420Z,3.83
2023-05-10T19:59:55.319Z,3.58
2023-05-10T20:02:22.210Z,4.68
2023-05-10T20:04:49.168Z,3.10
2023-05-10T20:07:16.268Z,3.00
2023-05-10T20:09:44.382Z,3.22
2023-05-10T20:12:11.244Z,3.10
2023-05-10T20:14:38.166Z,3.00
2023-05-10T20:17:05.310Z,2.80
2023-05-10T20:19:32.413Z,2.90
2023-05-10T20:21:59.338Z,3.30
2023-05-10T20:24:26.195Z,3.00
2023-05-10T20:26:53.063Z,2.97
2023-05-10T20:29:19.977Z,3.37
2023-05-10T20:31:46.897Z,3.42
2023-05-10T20:34:13.882Z,3.80
2023-05-10T20:36:40.711Z,3.35
2023-05-10T20:39:07.576Z,2.70
2023-05-10T20:41:34.389Z,2.80
2023-05-10T20:44:01.200Z,2.90
2023-05-10T20:46:28.249Z,2.70
2023-05-10T20:48:55.167Z,2.67
2023-05-10T20:51:22.005Z,2.87
2023-05-10T20:53:48.834Z,2.62
2023-05-10T20:56:15.765Z,3.53
2023-05-10T20:58:42.617Z,3.12
2023-05-10T21:01:09.563Z,3.40
2023-05-10T21:03:36.441Z,3.10
2023-05-10T21:06:03.348Z,3.95
2023-05-10T21:08:30.175Z,3.33
2023-05-10T21:10:57.082Z,3.00
2023-05-10T21:13:23.950Z,3.05
2023-05-10T21:15:50.938Z,3.50
2023-05-10T21:18:17.860Z,2.95
2023-05-10T21:20:44.776Z,2.67
2023-05-10T21:23:11.629Z,2.90
2023-05-10T21:25:38.824Z,2.75
2023-05-10T21:28:05.725Z,2.97
2023-05-10T21:30:33.642Z,2.70
2023-05-10T21:33:01.914Z,2.75
2023-05-10T21:35:30.102Z,3.03
2023-05-10T21:37:57.457Z,2.97
2023-05-10T21:40:24.387Z,3.20
2023-05-10T21:42:51.305Z,3.22
2023-05-10T21:45:19.867Z,3.10
2023-05-10T21:47:46.803Z,3.10
2023-05-10T21:50:13.742Z,3.12
2023-05-10T21:52:40.564Z,3.08
2023-05-10T21:55:08.786Z,2.92
2023-05-10T21:57:36.760Z,3.05
2023-05-10T22:00:03.886Z,3.40
2023-05-10T22:02:30.908Z,3.20
2023-05-10T22:04:58.135Z,3.12
2023-05-10T22:07:25.091Z,3.12
2023-05-10T22:09:51.905Z,3.30
2023-05-10T22:12:18.741Z,2.87
2023-05-10T22:14:45.987Z,3.10
2023-05-10T22:17:12.950Z,3.00
2023-05-10T22:19:39.851Z,2.83
2023-05-10T22:22:06.726Z,2.90
2023-05-10T22:24:33.563Z,3.17
2023-05-10T22:27:01.111Z,3.40
2023-05-10T22:29:28.369Z,3.53
2023-05-10T22:31:55.308Z,3.58
2023-05-10T22:34:22.198Z,3.33
2023-05-10T22:36:50.554Z,3.28
2023-05-10T22:39:17.767Z,3.17
2023-05-10T22:41:44.640Z,3.05
2023-05-10T22:44:11.512Z,3.00
2023-05-10T22:46:38.503Z,3.20
2023-05-10T22:49:06.382Z,3.00
2023-05-10T22:51:33.395Z,3.03
2023-05-10T22:54:00.240Z,2.75
2023-05-10T22:56:27.616Z,3.45
2023-05-10T22:58:54.961Z,3.55
2023-05-10T23:01:21.829Z,3.20
2023-05-10T23:03:48.721Z,3.05
2023-05-10T23:06:15.555Z,3.30
2023-05-10T23:08:42.446Z,2.85
2023-05-10T23:11:09.345Z,3.35
2023-05-10T23:13:36.247Z,3.00
2023-05-10T23:16:06.973Z,3.17
2023-05-10T23:18:34.181Z,3.12
2023-05-10T23:21:01.162Z,3.10
2023-05-10T23:23:28.007Z,3.10
2023-05-10T23:25:54.967Z,3.20
2023-05-10T23:28:21.814Z,3.20
2023-05-10T23:30:55.754Z,3.10
2023-05-10T23:33:23.420Z,3.33
2023-05-10T23:35:50.317Z,3.30
2023-05-10T23:38:17.342Z,3.30
2023-05-10T23:40:48.220Z,3.33
2023-05-10T23:43:16.329Z,3.20
2023-05-10T23:45:43.428Z,4.03
2023-05-10T23:48:10.358Z,3.70
2023-05-10T23:50:37.328Z,4.10
2023-05-10T23:53:04.155Z,4.30
2023-05-10T23:55:31.037Z,4.15
2023-05-10T23:57:57.848Z,4.60
